createdAt,value
2023-03-24T04:39:01.707Z,14.80
2023-03-24T04:49:47.509Z,14.70
2023-03-24T05:00:24.200Z,14.60
2023-03-24T05:11:00.040Z,14.20
2023-03-24T05:21:37.065Z,13.70
2023-03-24T05:32:15.313Z,13.40
2023-03-24T05:42:51.593Z,13.10
2023-03-24T05:53:28.499Z,13.00
2023-03-24T06:04:22.243Z,13.00
2023-03-24T06:15:01.215Z,13.10
2023-03-24T06:25:37.579Z,13.20
2023-03-24T06:36:40.590Z,13.30
2023-03-24T06:47:17.491Z,13.30
2023-03-24T06:57:54.391Z,13.30
2023-03-24T07:08:46.944Z,13.30
2023-03-24T07:19:23.107Z,13.20
2023-03-24T07:30:09.951Z,13.40
2023-03-24T07:40:51.389Z,13.00
2023-03-24T07:51:27.180Z,13.00
2023-03-24T08:02:17.834Z,13.00
2023-03-24T08:13:05.764Z,13.10
2023-03-24T08:23:41.600Z,13.10
2023-03-24T08:34:17.359Z,13.10
2023-03-24T08:44:53.283Z,12.70
2023-03-24T08:55:29.393Z,13.00
2023-03-24T09:06:05.752Z,13.00
2023-03-24T09:16:41.742Z,13.00
2023-03-24T09:27:17.627Z,13.10
2023-03-24T09:37:54.539Z,13.00
2023-03-24T09:48:42.236Z,13.00
2023-03-24T09:59:29.127Z,13.00
2023-03-24T10:10:22.107Z,13.20
2023-03-24T10:21:20.103Z,13.00
2023-03-24T10:32:20.733Z,13.10
2023-03-24T10:43:07.085Z,12.90
2023-03-24T10:53:48.428Z,11.20
2023-03-24T11:04:24.505Z,11.30
2023-03-24T11:15:23.311Z,11.50
2023-03-24T11:26:22.627Z,11.50
2023-03-24T11:37:03.668Z,12.40
2023-03-24T11:47:40.227Z,12.80
2023-03-24T11:58:37.697Z,13.00
2023-03-24T12:09:13.264Z,13.30
2023-03-24T12:20:08.335Z,13.10
2023-03-24T12:31:05.055Z,13.00
2023-03-24T12:41:50.891Z,13.50
2023-03-24T12:52:49.037Z,14.40
2023-03-24T13:03:35.602Z,14.80
2023-03-24T13:14:17.175Z,15.20
2023-03-24T13:24:55.538Z,14.90
2023-03-24T13:35:39.475Z,14.80
2023-03-24T13:46:15.178Z,14.90
2023-03-24T13:57:18.594Z,15.70
2023-03-24T14:08:15.379Z,16.20
2023-03-24T14:18:51.351Z,16.20
2023-03-24T14:29:39.018Z,16.10
2023-03-24T14:40:46.145Z,16.20
2023-03-24T14:51:43.223Z,16.00
2023-03-24T15:02:41.806Z,16.10
2023-03-24T15:12:57.782Z,16.20
2023-03-24T15:23:19.092Z,16.30
2023-03-24T15:33:42.820Z,16.30
2023-03-24T15:43:59.186Z,16.60
2023-03-24T15:54:39.726Z,16.70
2023-03-24T16:05:10.806Z,16.00
2023-03-24T16:15:27.090Z,15.70
2023-03-24T16:25:42.907Z,15.60
2023-03-24T16:36:19.105Z,15.40
2023-03-24T16:46:55.753Z,15.30
2023-03-24T16:57:31.441Z,14.90
2023-03-24T17:08:07.456Z,14.90
2023-03-24T17:18:43.414Z,14.80
2023-03-24T17:29:19.130Z,14.70
2023-03-24T17:39:57.606Z,14.40
2023-03-24T17:50:33.416Z,14.20
2023-03-24T18:01:09.278Z,14.10
2023-03-24T18:11:46.665Z,13.80
2023-03-24T18:22:23.532Z,13.60
2023-03-24T18:33:01.448Z,13.20
2023-03-24T18:43:39.340Z,12.90
2023-03-24T18:54:15.228Z,12.70
2023-03-24T19:04:52.068Z,12.50
2023-03-24T19:15:29.771Z,12.50
2023-03-24T19:26:05.614Z,12.40
2023-03-24T19:36:44.338Z,12.40
2023-03-24T19:47:19.686Z,12.70
2023-03-24T19:57:55.285Z,12.50
2023-03-24T20:08:30.824Z,12.20
2023-03-24T20:19:06.533Z,11.50
2023-03-24T20:29:43.576Z,11.60
2023-03-24T20:40:20.672Z,11.70
2023-03-24T20:50:56.186Z,11.60
2023-03-24T21:01:35.950Z,11.30
2023-03-24T21:12:11.818Z,11.10
2023-03-24T21:22:53.397Z,11.50
2023-03-24T21:33:29.234Z,11.70
2023-03-24T21:44:07.813Z,11.10
2023-03-24T21:54:43.471Z,11.00
2023-03-24T22:05:25.789Z,10.90
2023-03-24T22:16:03.673Z,10.80
2023-03-24T22:26:39.432Z,10.60
